Time;durP1;ratioP1;P1;durP2;ratioP2;P2;SDS_P1;SDS_P2;PMS_P1;PMS_P2;Temp;Humidity;BMP_temperature;BMP_pressure;BME280_temperature;BME280_humidity;BME280_pressure;Samples;Min_cycle;Max_cycle;Signal;HPM_P1;HPM_P2
2020/12/13 00:00:13;;;;;;;49.88;17.17;;;8.50;99.90;;;;;;4973252;28;20051;-79
2020/12/13 00:02:39;;;;;;;52.13;17.00;;;8.50;99.90;;;;;;4973016;28;20026;-79
2020/12/13 00:05:06;;;;;;;52.20;16.45;;;8.50;99.90;;;;;;4961328;28;20027;-80
2020/12/13 00:07:31;;;;;;;42.85;16.05;;;8.60;99.90;;;;;;4966570;28;20030;-80
2020/12/13 00:09:57;;;;;;;46.95;17.33;;;8.50;99.90;;;;;;4984523;28;20050;-79
2020/12/13 00:12:23;;;;;;;46.65;16.70;;;8.50;99.90;;;;;;4965684;28;20079;-79
2020/12/13 00:14:48;;;;;;;41.53;15.73;;;8.50;99.90;;;;;;4963910;28;20051;-80
2020/12/13 00:17:14;;;;;;;50.10;15.25;;;8.50;99.90;;;;;;4967116;28;20085;-80
2020/12/13 00:19:39;;;;;;;39.08;13.82;;;8.50;99.90;;;;;;4970673;28;20380;-80
2020/12/13 00:22:05;;;;;;;56.03;17.58;;;8.50;99.90;;;;;;4963327;28;20411;-80
2020/12/13 00:24:30;;;;;;;50.80;15.88;;;8.50;99.90;;;;;;4974897;28;20050;-79
2020/12/13 00:26:56;;;;;;;55.22;16.17;;;8.50;99.90;;;;;;4964351;28;20038;-80
2020/12/13 00:29:22;;;;;;;53.33;15.93;;;8.50;99.90;;;;;;4980298;28;20399;-79
2020/12/13 00:31:50;;;;;;;49.40;15.93;;;8.60;99.90;;;;;;4966985;28;20030;-80
2020/12/13 00:34:16;;;;;;;46.67;15.82;;;8.60;99.90;;;;;;4966353;28;20027;-80
2020/12/13 00:36:42;;;;;;;46.20;14.25;;;8.60;99.90;;;;;;4965139;28;20046;-80
2020/12/13 00:39:07;;;;;;;36.88;15.02;;;8.60;99.90;;;;;;4982228;28;20099;-80
2020/12/13 00:41:33;;;;;;;45.85;15.45;;;8.50;99.90;;;;;;4974573;28;20031;-80
2020/12/13 00:43:59;;;;;;;54.58;16.80;;;8.60;99.90;;;;;;4983330;28;20034;-80
2020/12/13 00:46:25;;;;;;;51.72;15.55;;;8.60;99.90;;;;;;4984012;28;20060;-80
2020/12/13 00:48:50;;;;;;;42.53;13.85;;;8.60;99.90;;;;;;4974495;28;20073;-81
2020/12/13 00:51:25;;;;;;;53.70;15.48;;;8.60;99.90;;;;;;4966000;28;20039;-81
2020/12/13 00:53:51;;;;;;;43.50;14.63;;;8.60;99.90;;;;;;4966686;28;20066;-81
2020/12/13 00:56:17;;;;;;;44.22;15.10;;;8.70;99.90;;;;;;4978772;28;20035;-81
2020/12/13 00:58:43;;;;;;;41.33;15.32;;;8.70;99.90;;;;;;4963261;28;20070;-81
2020/12/13 01:01:08;;;;;;;38.97;14.90;;;8.70;99.90;;;;;;4971265;28;20483;-81
2020/12/13 01:03:34;;;;;;;52.65;15.40;;;8.70;99.90;;;;;;4963956;28;20054;-81
2020/12/13 01:06:00;;;;;;;42.33;15.80;;;8.80;99.90;;;;;;4977683;28;20027;-80
2020/12/13 01:08:25;;;;;;;45.30;17.23;;;8.80;99.90;;;;;;4979720;28;20105;-80
2020/12/13 01:10:51;;;;;;;54.95;16.67;;;8.70;99.90;;;;;;4976752;28;20027;-81
2020/12/13 01:13:16;;;;;;;47.92;16.92;;;8.70;99.90;;;;;;4965311;28;20027;-81
2020/12/13 01:15:42;;;;;;;52.55;17.88;;;8.70;99.90;;;;;;4974606;28;20081;-81
2020/12/13 01:18:08;;;;;;;52.55;17.63;;;8.70;99.90;;;;;;4977943;28;20027;-80
2020/12/13 01:20:33;;;;;;;54.80;18.38;;;8.70;99.90;;;;;;4977674;28;20058;-80
2020/12/13 01:22:59;;;;;;;50.28;16.27;;;8.60;99.90;;;;;;4968766;28;20023;-81
2020/12/13 01:25:24;;;;;;;45.58;15.25;;;8.60;99.90;;;;;;4975311;28;20035;-80
2020/12/13 01:27:50;;;;;;;64.80;17.70;;;8.60;99.90;;;;;;4977661;28;20050;-81
2020/12/13 01:30:16;;;;;;;56.20;17.27;;;8.50;99.90;;;;;;4982464;28;20105;-81
2020/12/13 01:32:42;;;;;;;48.47;17.00;;;8.50;99.90;;;;;;4974854;28;20027;-81
2020/12/13 01:35:10;;;;;;;42.28;15.38;;;8.60;99.90;;;;;;4969848;28;20030;-81
2020/12/13 01:37:36;;;;;;;48.95;15.52;;;8.60;99.90;;;;;;4976926;28;20031;-81
2020/12/13 01:40:03;;;;;;;53.53;18.02;;;8.70;99.90;;;;;;4980690;28;20027;-80
2020/12/13 01:42:29;;;;;;;42.13;15.55;;;8.70;99.90;;;;;;4972950;28;20027;-81
2020/12/13 01:44:54;;;;;;;40.90;16.88;;;8.70;99.90;;;;;;4979032;28;20395;-81
2020/12/13 01:47:21;;;;;;;42.03;15.73;;;8.70;99.90;;;;;;4979246;28;20027;-81
2020/12/13 01:49:48;;;;;;;37.00;14.18;;;8.70;99.90;;;;;;4971562;28;20027;-80
2020/12/13 01:55:18;;;;;;;39.92;14.40;;;8.70;99.90;;;;;;4942539;28;20050;-80
2020/12/13 01:57:53;;;;;;;41.67;13.90;;;8.80;99.90;;;;;;4980747;28;20026;-80
2020/12/13 02:00:19;;;;;;;41.30;15.35;;;8.70;99.90;;;;;;4979384;28;20502;-79
2020/12/13 02:02:51;;;;;;;39.80;14.55;;;8.70;99.90;;;;;;4968851;28;20118;-80
2020/12/13 02:05:20;;;;;;;42.50;14.95;;;8.70;99.90;;;;;;4973498;28;20150;-80
2020/12/13 02:07:47;;;;;;;34.17;14.07;;;8.70;99.90;;;;;;4981574;28;20041;-80
2020/12/13 02:10:13;;;;;;;36.80;13.70;;;8.70;99.90;;;;;;4973844;28;20038;-80
2020/12/13 02:12:39;;;;;;;28.70;13.40;;;8.70;99.90;;;;;;4971327;28;20171;-80
2020/12/13 02:15:06;;;;;;;39.03;13.27;;;8.70;99.90;;;;;;4969632;28;20054;-80
2020/12/13 02:17:34;;;;;;;31.90;13.35;;;8.60;99.90;;;;;;4981721;28;20026;-80
2020/12/13 02:20:04;;;;;;;38.38;14.73;;;8.60;99.90;;;;;;4977703;28;20035;-80
2020/12/13 02:22:30;;;;;;;36.47;13.35;;;8.60;99.90;;;;;;4980301;28;20039;-80
2020/12/13 02:25:11;;;;;;;37.65;14.20;;;8.60;99.90;;;;;;4978955;28;20082;-79
2020/12/13 02:27:38;;;;;;;36.58;14.43;;;8.60;99.90;;;;;;4970221;28;20050;-80
2020/12/13 02:30:04;;;;;;;36.03;14.60;;;8.60;99.90;;;;;;4977018;28;20038;-80
2020/12/13 02:32:30;;;;;;;38.25;15.15;;;8.60;99.90;;;;;;4973640;28;20031;-80
2020/12/13 02:34:56;;;;;;;34.90;14.10;;;8.60;99.90;;;;;;4984686;28;20042;-80
2020/12/13 02:37:21;;;;;;;36.35;13.88;;;8.70;99.90;;;;;;4993005;28;20034;-80
2020/12/13 02:39:48;;;;;;;39.92;15.55;;;8.70;99.90;;;;;;4989589;28;20035;-80
2020/12/13 02:42:13;;;;;;;48.08;14.60;;;8.70;99.90;;;;;;4985318;28;20011;-80
2020/12/13 02:44:39;;;;;;;41.97;15.63;;;8.70;99.90;;;;;;4981534;28;20026;-80
2020/12/13 02:47:04;;;;;;;44.47;17.02;;;8.70;99.90;;;;;;4994386;28;20058;-80
2020/12/13 02:49:30;;;;;;;41.03;17.02;;;8.70;99.90;;;;;;4995162;28;20039;-80
2020/12/13 02:51:56;;;;;;;37.92;16.33;;;8.70;99.90;;;;;;4997178;28;20050;-80
2020/12/13 02:54:21;;;;;;;39.25;16.20;;;8.70;99.90;;;;;;4994716;28;20039;-80
2020/12/13 02:56:47;;;;;;;36.88;16.40;;;8.80;99.90;;;;;;4999297;28;20011;-80
2020/12/13 02:59:12;;;;;;;39.72;16.05;;;8.80;99.90;;;;;;4998662;28;20027;-79
2020/12/13 03:01:38;;;;;;;53.85;17.60;;;8.70;99.90;;;;;;4990415;28;20052;-80
2020/12/13 03:04:03;;;;;;;50.05;16.90;;;8.60;99.90;;;;;;4985631;28;20027;-80
2020/12/13 03:06:29;;;;;;;45.55;16.42;;;8.60;99.90;;;;;;4982544;28;20530;-81
2020/12/13 03:08:55;;;;;;;41.70;15.85;;;8.70;99.90;;;;;;4977055;28;20037;-81
2020/12/13 03:11:22;;;;;;;50.22;16.98;;;8.70;99.90;;;;;;4975102;28;20049;-80
2020/12/13 03:13:49;;;;;;;36.63;14.93;;;8.80;99.90;;;;;;4975404;28;20114;-80
2020/12/13 03:16:15;;;;;;;40.63;15.52;;;8.90;99.90;;;;;;4962989;28;20038;-80
2020/12/13 03:18:41;;;;;;;40.65;15.77;;;8.90;99.90;;;;;;4969304;28;20035;-80
2020/12/13 03:21:06;;;;;;;42.17;15.93;;;8.90;99.90;;;;;;4977153;28;20043;-80
2020/12/13 03:23:32;;;;;;;35.70;15.50;;;8.90;99.90;;;;;;4969537;28;20403;-81
2020/12/13 03:25:57;;;;;;;44.10;17.75;;;8.90;99.90;;;;;;4976557;28;20034;-81
2020/12/13 03:28:23;;;;;;;35.50;15.80;;;8.80;99.90;;;;;;4975631;28;20391;-81
2020/12/13 03:30:49;;;;;;;39.47;14.65;;;8.80;99.90;;;;;;4968363;28;20456;-81
2020/12/13 03:33:14;;;;;;;41.53;15.85;;;8.80;99.90;;;;;;4970789;28;20415;-81
2020/12/13 03:35:40;;;;;;;34.40;15.43;;;8.80;99.90;;;;;;4974309;28;20026;-81
2020/12/13 03:38:05;;;;;;;35.65;14.80;;;8.80;99.90;;;;;;4976287;28;20034;-81
2020/12/13 03:40:31;;;;;;;34.30;14.38;;;8.90;99.90;;;;;;4973277;28;20032;-81
2020/12/13 03:42:57;;;;;;;39.15;15.05;;;8.90;99.90;;;;;;4976443;28;20074;-81
2020/12/13 03:45:22;;;;;;;38.33;15.80;;;8.90;99.90;;;;;;4968698;28;20041;-81
2020/12/13 03:47:48;;;;;;;40.75;15.32;;;9.00;99.90;;;;;;4975825;28;20054;-81
2020/12/13 03:50:13;;;;;;;46.83;16.00;;;8.90;99.90;;;;;;4962750;28;20024;-81
2020/12/13 03:52:39;;;;;;;41.97;16.02;;;8.90;99.90;;;;;;4964456;28;20034;-81
2020/12/13 03:55:05;;;;;;;46.75;15.98;;;8.90;99.90;;;;;;4975325;28;20065;-81
2020/12/13 03:57:30;;;;;;;59.40;18.33;;;8.90;99.90;;;;;;4976921;28;20483;-81
2020/12/13 03:59:56;;;;;;;49.63;17.13;;;8.90;99.90;;;;;;4975918;28;20027;-80
2020/12/13 04:02:21;;;;;;;45.00;16.40;;;8.90;99.90;;;;;;4968714;28;20050;-80
2020/12/13 04:04:47;;;;;;;43.17;17.38;;;8.90;99.90;;;;;;4968042;28;20089;-80
2020/12/13 04:07:12;;;;;;;36.33;15.60;;;8.90;99.90;;;;;;4972088;28;20023;-80
2020/12/13 04:09:38;;;;;;;46.38;17.05;;;8.90;99.90;;;;;;4975190;28;20066;-81
2020/12/13 04:12:04;;;;;;;48.38;16.77;;;8.90;99.90;;;;;;4969670;28;20028;-80
2020/12/13 04:14:29;;;;;;;49.20;16.45;;;9.00;99.90;;;;;;4968163;28;20371;-80
2020/12/13 04:16:55;;;;;;;36.85;14.73;;;9.10;99.90;;;;;;4972133;28;20027;-80
2020/12/13 04:19:21;;;;;;;40.80;15.65;;;9.10;99.90;;;;;;4976578;28;20133;-80
2020/12/13 04:21:46;;;;;;;40.25;15.38;;;9.10;99.90;;;;;;4959900;28;20038;-80
2020/12/13 04:24:12;;;;;;;51.35;15.80;;;9.10;99.90;;;;;;4965477;28;20450;-80
2020/12/13 04:26:38;;;;;;;38.58;15.15;;;9.00;99.90;;;;;;4976151;28;20109;-80
2020/12/13 04:29:03;;;;;;;43.03;15.07;;;9.10;99.90;;;;;;4976817;28;20022;-80
2020/12/13 04:31:29;;;;;;;31.65;14.35;;;9.00;99.90;;;;;;4976605;28;20072;-80
2020/12/13 04:33:54;;;;;;;35.85;14.77;;;9.00;99.90;;;;;;4971425;28;20395;-80
2020/12/13 04:36:20;;;;;;;37.95;14.70;;;9.10;99.90;;;;;;4978308;28;20023;-80
2020/12/13 04:38:46;;;;;;;34.53;14.27;;;9.00;99.90;;;;;;4978789;28;20125;-80
2020/12/13 04:41:11;;;;;;;35.50;14.82;;;9.00;99.90;;;;;;4975602;28;20039;-80
2020/12/13 04:43:38;;;;;;;37.20;14.25;;;9.00;99.90;;;;;;4967856;28;20458;-80
2020/12/13 04:46:06;;;;;;;38.20;14.55;;;9.00;99.90;;;;;;4970128;28;20027;-80
2020/12/13 04:48:33;;;;;;;42.67;14.02;;;9.10;99.90;;;;;;4977910;28;20038;-80
2020/12/13 04:50:59;;;;;;;29.38;14.13;;;9.10;99.90;;;;;;4974018;28;20039;-81
2020/12/13 04:53:28;;;;;;;33.72;14.63;;;9.10;99.90;;;;;;4978336;28;20431;-80
2020/12/13 04:55:58;;;;;;;34.53;14.38;;;9.10;99.90;;;;;;4977903;28;20022;-81
2020/12/13 04:58:27;;;;;;;30.52;14.30;;;9.10;99.90;;;;;;4975841;28;20045;-81
2020/12/13 05:00:58;;;;;;;36.47;15.43;;;9.10;99.90;;;;;;4977173;28;20018;-80
2020/12/13 05:03:25;;;;;;;33.55;13.77;;;9.10;99.90;;;;;;4968886;28;20053;-80
2020/12/13 05:05:52;;;;;;;33.97;13.38;;;9.10;99.90;;;;;;4971173;28;20023;-80
2020/12/13 05:08:18;;;;;;;30.10;13.48;;;9.00;99.90;;;;;;4970278;28;20062;-80
2020/12/13 05:10:44;;;;;;;35.83;13.73;;;9.00;99.90;;;;;;4976721;28;20039;-81
2020/12/13 05:13:10;;;;;;;27.95;12.55;;;9.00;99.90;;;;;;4988407;28;20043;-80
2020/12/13 05:15:37;;;;;;;26.88;13.23;;;8.90;99.90;;;;;;4993445;28;20031;-80
2020/12/13 05:18:04;;;;;;;36.63;13.00;;;8.80;99.90;;;;;;4979742;28;20046;-80
2020/12/13 05:20:30;;;;;;;27.73;12.52;;;8.80;99.90;;;;;;4996917;28;20027;-81
2020/12/13 05:22:57;;;;;;;29.15;12.38;;;8.80;99.90;;;;;;4999511;28;20046;-80
2020/12/13 05:25:34;;;;;;;28.17;11.85;;;8.80;99.90;;;;;;4997389;28;20035;-80
2020/12/13 05:28:03;;;;;;;28.55;12.68;;;8.80;99.90;;;;;;5000214;28;20014;-81
2020/12/13 05:30:36;;;;;;;23.52;10.95;;;8.80;99.90;;;;;;4999839;28;20037;-81
2020/12/13 05:33:09;;;;;;;26.63;12.27;;;8.80;99.90;;;;;;4999787;28;20014;-80
2020/12/13 05:35:35;;;;;;;25.45;11.88;;;8.80;99.90;;;;;;4999039;28;20021;-80
2020/12/13 05:38:08;;;;;;;24.55;11.82;;;8.70;99.90;;;;;;4987009;28;20026;-81
2020/12/13 05:40:35;;;;;;;26.00;12.00;;;8.70;99.90;;;;;;4980565;28;20114;-80
2020/12/13 05:43:07;;;;;;;24.05;11.25;;;8.70;99.90;;;;;;4981818;28;20061;-81
2020/12/13 05:46:29;;;;;;;21.58;11.38;;;8.60;99.90;;;;;;4976134;28;20054;-81
2020/12/13 05:51:02;;;;;;;20.17;8.80;;;8.60;99.90;;;;;;4963987;28;20027;-82
2020/12/13 05:53:36;;;;;;;23.63;11.25;;;8.60;99.90;;;;;;4976394;28;20023;-81
2020/12/13 05:56:04;;;;;;;27.17;11.50;;;8.50;99.90;;;;;;4966838;28;20027;-81
2020/12/13 05:58:29;;;;;;;23.02;11.65;;;8.50;99.90;;;;;;4959802;28;20075;-82
2020/12/13 06:00:56;;;;;;;25.55;11.43;;;8.50;99.90;;;;;;4969772;28;20082;-82
2020/12/13 06:03:34;;;;;;;25.95;11.65;;;8.60;99.90;;;;;;4989710;28;20405;-81
2020/12/13 06:06:08;;;;;;;29.15;11.70;;;8.60;99.90;;;;;;4976018;28;20503;-82
2020/12/13 06:09:05;;;;;;;28.02;11.23;;;8.60;99.90;;;;;;4973601;28;20159;-81
2020/12/13 06:11:36;;;;;;;34.45;11.77;;;8.60;99.90;;;;;;4972290;28;20082;-81
2020/12/13 06:14:08;;;;;;;32.42;12.75;;;8.50;99.90;;;;;;4978308;28;20034;-81
2020/12/13 06:16:33;;;;;;;35.10;13.10;;;8.50;99.90;;;;;;4972582;28;20035;-81
2020/12/13 06:18:59;;;;;;;33.33;13.25;;;8.50;99.90;;;;;;4967175;28;20479;-81
2020/12/13 06:21:25;;;;;;;32.20;12.60;;;8.50;99.90;;;;;;4963482;28;20388;-81
2020/12/13 06:23:53;;;;;;;32.53;11.40;;;8.50;99.90;;;;;;4984281;28;20031;-81
2020/12/13 06:26:19;;;;;;;33.10;13.35;;;8.60;99.90;;;;;;4961542;28;20027;-81
2020/12/13 06:28:45;;;;;;;28.05;11.60;;;8.50;99.90;;;;;;4967646;28;20027;-81
2020/12/13 06:31:18;;;;;;;30.17;12.18;;;8.60;99.90;;;;;;4979324;28;20026;-81
2020/12/13 06:33:44;;;;;;;27.42;11.75;;;8.70;99.90;;;;;;4964657;28;20062;-82
2020/12/13 06:36:10;;;;;;;26.02;12.60;;;8.70;99.90;;;;;;4966944;28;20066;-81
2020/12/13 06:38:38;;;;;;;25.77;11.48;;;8.70;99.90;;;;;;4973558;28;20031;-81
2020/12/13 06:41:13;;;;;;;25.52;11.60;;;8.80;99.90;;;;;;4964398;28;20174;-81
2020/12/13 06:43:56;;;;;;;26.02;10.73;;;8.80;99.90;;;;;;4962660;28;20043;-80
2020/12/13 06:46:24;;;;;;;21.38;10.07;;;8.80;99.90;;;;;;4974952;28;20498;-81
2020/12/13 06:48:50;;;;;;;;;;;8.90;99.90;;;;;;4958682;28;20031;-80
2020/12/13 06:51:25;;;;;;;19.85;10.20;;;8.90;99.90;;;;;;4971514;28;19957;-80
2020/12/13 06:53:51;;;;;;;18.70;9.88;;;8.90;99.90;;;;;;4974527;28;20475;-79
2020/12/13 06:56:19;;;;;;;21.90;10.50;;;8.90;99.90;;;;;;4975181;28;20027;-79
2020/12/13 06:59:01;;;;;;;23.50;11.18;;;8.90;99.90;;;;;;4973831;28;20023;-79
2020/12/13 07:01:34;;;;;;;22.05;10.93;;;8.90;99.90;;;;;;4975553;28;20027;-79
2020/12/13 07:04:26;;;;;;;18.35;9.73;;;8.90;99.90;;;;;;4971617;28;20038;-79
2020/12/13 07:07:06;;;;;;;19.10;10.05;;;8.80;99.90;;;;;;4968186;28;20030;-79
2020/12/13 07:09:32;;;;;;;22.33;10.65;;;8.90;99.90;;;;;;4971698;28;20054;-79
2020/12/13 07:11:59;;;;;;;24.77;11.43;;;8.90;99.90;;;;;;4970591;28;20122;-79
2020/12/13 07:14:28;;;;;;;21.13;10.70;;;8.80;99.90;;;;;;4959239;28;20042;-78
2020/12/13 07:17:09;;;;;;;26.45;11.15;;;8.80;99.90;;;;;;4976117;28;20054;-79
2020/12/13 07:19:38;;;;;;;25.40;10.35;;;8.80;99.90;;;;;;4967593;28;20031;-79
2020/12/13 07:22:12;;;;;;;23.33;11.32;;;8.80;99.90;;;;;;4956737;28;20043;-79
2020/12/13 07:24:39;;;;;;;22.65;11.02;;;8.80;99.90;;;;;;4965230;28;20028;-79
2020/12/13 07:27:06;;;;;;;24.58;13.30;;;8.80;99.90;;;;;;4957003;28;20488;-79
2020/12/13 07:29:32;;;;;;;27.15;11.93;;;8.80;99.90;;;;;;4966962;28;20494;-79
2020/12/13 07:32:02;;;;;;;27.60;11.82;;;8.90;99.90;;;;;;4963594;28;20015;-79
2020/12/13 07:34:28;;;;;;;32.53;11.90;;;8.90;99.90;;;;;;4971821;28;20054;-79
2020/12/13 07:36:54;;;;;;;26.80;13.30;;;8.80;99.90;;;;;;4977800;28;20030;-79
2020/12/13 07:39:20;;;;;;;27.38;11.38;;;8.80;99.90;;;;;;4967973;28;20019;-79
2020/12/13 07:41:48;;;;;;;30.65;13.13;;;8.80;99.90;;;;;;4983366;28;20031;-78
2020/12/13 07:44:16;;;;;;;28.52;11.90;;;8.80;99.90;;;;;;4994829;28;20058;-79
2020/12/13 07:46:42;;;;;;;24.77;11.93;;;8.80;99.90;;;;;;4986358;28;20068;-79
2020/12/13 07:49:17;;;;;;;31.60;13.50;;;8.80;99.90;;;;;;4992564;28;20083;-80
2020/12/13 07:51:48;;;;;;;29.13;13.20;;;8.70;99.90;;;;;;4981286;28;20027;-79
2020/12/13 07:54:19;;;;;;;26.10;12.63;;;8.80;99.90;;;;;;4992658;28;20012;-78
2020/12/13 07:56:47;;;;;;;34.95;12.68;;;8.80;99.90;;;;;;4983099;28;20029;-79
2020/12/13 07:59:20;;;;;;;33.50;14.15;;;8.70;99.90;;;;;;4987581;28;20030;-78
2020/12/13 08:01:51;;;;;;;25.67;12.15;;;8.70;99.90;;;;;;4980451;28;20118;-79
2020/12/13 08:04:39;;;;;;;30.00;13.65;;;8.70;99.90;;;;;;4964524;28;20159;-80
2020/12/13 08:07:06;;;;;;;35.08;14.27;;;8.70;99.90;;;;;;4976048;28;20025;-79
2020/12/13 08:09:32;;;;;;;32.38;13.18;;;8.70;99.90;;;;;;4969949;28;20039;-79
2020/12/13 08:11:57;;;;;;;27.63;12.68;;;8.70;99.90;;;;;;4975864;28;20034;-80
2020/12/13 08:14:25;;;;;;;30.90;12.52;;;8.70;99.90;;;;;;4971595;28;20034;-79
2020/12/13 08:16:51;;;;;;;21.80;10.73;;;8.80;99.90;;;;;;4974169;28;20105;-80
2020/12/13 08:19:23;;;;;;;34.25;11.98;;;8.80;99.90;;;;;;4974529;28;20539;-79
2020/12/13 08:22:14;;;;;;;30.95;11.95;;;8.80;99.90;;;;;;4971917;28;20475;-79
2020/12/13 08:24:41;;;;;;;21.98;11.18;;;8.70;99.90;;;;;;4971985;28;20089;-79
2020/12/13 08:27:09;;;;;;;28.95;12.02;;;8.80;99.90;;;;;;4965877;28;20444;-79
2020/12/13 08:29:35;;;;;;;36.38;12.77;;;8.70;99.90;;;;;;4976989;28;20026;-79
2020/12/13 08:32:10;;;;;;;28.55;11.52;;;8.60;99.90;;;;;;4976085;28;20379;-80
2020/12/13 08:34:36;;;;;;;26.23;11.35;;;8.70;99.90;;;;;;4977987;28;20030;-79
2020/12/13 08:37:01;;;;;;;32.97;11.60;;;8.60;99.90;;;;;;4974296;28;20023;-79
2020/12/13 08:39:35;;;;;;;35.65;10.70;;;8.60;99.90;;;;;;4967610;28;20046;-79
2020/12/13 08:42:06;;;;;;;24.25;8.90;;;8.70;99.90;;;;;;4969527;28;20035;-80
2020/12/13 08:44:33;;;;;;;22.30;9.25;;;8.70;99.90;;;;;;4972275;28;20038;-80
2020/12/13 08:47:05;;;;;;;18.95;8.50;;;8.70;99.90;;;;;;4977412;28;20055;-80
2020/12/13 08:49:34;;;;;;;20.35;7.80;;;8.70;99.90;;;;;;4980883;28;20022;-79
2020/12/13 08:52:21;;;;;;;28.90;8.30;;;8.70;99.90;;;;;;4981255;28;20073;-80
2020/12/13 08:55:00;;;;;;;23.88;8.55;;;8.70;99.90;;;;;;4982983;28;20058;-80
2020/12/13 08:57:29;;;;;;;15.75;7.68;;;8.70;99.90;;;;;;4977753;28;20038;-79
2020/12/13 09:00:06;;;;;;;24.23;8.35;;;8.70;99.90;;;;;;4987755;28;20035;-80
2020/12/13 09:02:32;;;;;;;25.33;9.52;;;8.70;99.90;;;;;;4972200;28;20031;-79
2020/12/13 09:04:58;;;;;;;26.58;8.55;;;8.70;99.90;;;;;;4988205;28;20082;-80
2020/12/13 09:07:34;;;;;;;20.13;8.32;;;8.70;99.90;;;;;;4985281;28;20027;-80
2020/12/13 09:10:09;;;;;;;22.35;7.55;;;8.80;99.90;;;;;;4976591;28;20035;-80
2020/12/13 09:12:36;;;;;;;25.65;7.80;;;8.80;99.90;;;;;;4974657;28;20027;-81
2020/12/13 09:15:13;;;;;;;26.77;7.95;;;8.80;99.90;;;;;;4981369;28;20030;-79
2020/12/13 09:17:55;;;;;;;18.45;6.70;;;8.80;99.90;;;;;;4984882;28;20039;-80
2020/12/13 09:20:32;;;;;;;20.33;7.45;;;8.80;99.90;;;;;;4971412;28;20035;-79
2020/12/13 09:23:05;;;;;;;12.88;6.07;;;8.80;99.90;;;;;;4993255;28;20043;-80
2020/12/13 09:25:45;;;;;;;16.25;6.53;;;8.70;99.90;;;;;;4977307;28;20130;-80
2020/12/13 09:28:13;;;;;;;26.10;7.38;;;8.70;99.90;;;;;;4984528;28;20046;-80
2020/12/13 09:30:39;;;;;;;22.67;7.43;;;8.60;99.90;;;;;;4974684;28;20038;-80
2020/12/13 09:33:05;;;;;;;20.77;7.93;;;8.50;99.90;;;;;;4982667;28;20482;-79
2020/12/13 09:35:31;;;;;;;24.80;8.15;;;8.60;99.90;;;;;;4982245;28;20043;-80
2020/12/13 09:38:08;;;;;;;23.40;9.30;;;8.50;99.90;;;;;;4968929;28;20043;-80
2020/12/13 09:40:34;;;;;;;28.17;9.03;;;8.50;99.90;;;;;;4974378;28;20069;-81
2020/12/13 09:43:01;;;;;;;20.10;8.55;;;8.40;99.90;;;;;;4963814;28;20035;-80
2020/12/13 09:45:27;;;;;;;25.98;10.77;;;8.30;99.90;;;;;;4966596;28;20035;-81
2020/12/13 09:47:55;;;;;;;19.30;9.15;;;8.30;99.90;;;;;;4969327;28;20065;-80
2020/12/13 09:50:22;;;;;;;;;;;8.20;99.90;;;;;;4984083;28;20050;-80
2020/12/13 09:52:47;;;;;;;28.85;9.98;;;8.20;99.90;;;;;;4988436;28;19926;-80
2020/12/13 09:55:13;;;;;;;28.15;10.20;;;8.10;99.90;;;;;;4980934;28;20070;-80
2020/12/13 09:57:39;;;;;;;25.70;10.88;;;8.10;99.90;;;;;;4995239;28;20042;-80
2020/12/13 10:00:05;;;;;;;25.92;10.52;;;8.10;99.90;;;;;;4969334;28;20027;-80
2020/12/13 10:02:30;;;;;;;24.05;10.23;;;8.10;99.90;;;;;;4979722;28;20097;-80
2020/12/13 10:04:56;;;;;;;22.60;11.07;;;8.10;99.90;;;;;;4978687;28;20047;-80
2020/12/13 10:09:00;;;;;;;23.08;9.30;;;8.10;99.90;;;;;;4973602;28;20039;-80
2020/12/13 10:10:19;;;;;;;18.02;7.57;;;8.10;99.90;;;;;;4966895;28;20047;-80
2020/12/13 10:12:44;;;;;;;18.13;7.47;;;8.10;99.90;;;;;;4970993;28;20030;-80
2020/12/13 10:15:10;;;;;;;15.05;7.65;;;8.10;99.90;;;;;;4964826;28;20122;-80
2020/12/13 10:17:36;;;;;;;19.15;7.65;;;8.10;99.90;;;;;;4965277;28;20035;-79
2020/12/13 10:20:03;;;;;;;18.02;9.02;;;8.00;99.90;;;;;;4965504;28;20392;-80
2020/12/13 10:22:28;;;;;;;20.67;8.00;;;8.00;99.90;;;;;;4976012;28;20038;-79
2020/12/13 10:24:54;;;;;;;17.05;8.20;;;8.10;99.90;;;;;;4983342;28;20027;-78
2020/12/13 10:27:20;;;;;;;24.85;9.73;;;8.00;99.90;;;;;;4970883;28;20131;-78
2020/12/13 10:29:45;;;;;;;15.20;8.27;;;8.00;99.90;;;;;;4987483;28;20027;-78
2020/12/13 10:32:11;;;;;;;24.67;8.95;;;8.00;99.90;;;;;;4985151;28;20030;-78
2020/12/13 10:34:36;;;;;;;25.85;8.32;;;8.00;99.90;;;;;;4975581;28;20034;-80
2020/12/13 10:37:02;;;;;;;19.58;7.93;;;8.00;99.90;;;;;;4969401;29;20039;-79
2020/12/13 10:39:28;;;;;;;19.55;7.18;;;8.00;99.90;;;;;;4969192;28;20047;-78
2020/12/13 10:41:54;;;;;;;19.27;7.82;;;8.10;99.90;;;;;;4989882;28;20031;-79
2020/12/13 10:44:20;;;;;;;20.15;8.68;;;8.10;99.90;;;;;;4976176;28;20070;-78
2020/12/13 10:46:47;;;;;;;24.63;7.60;;;8.10;99.90;;;;;;4982256;28;20447;-78
2020/12/13 10:49:13;;;;;;;22.88;8.43;;;8.20;99.90;;;;;;4969021;28;20053;-78
2020/12/13 10:51:38;;;;;;;16.63;7.22;;;8.20;99.90;;;;;;4982449;28;20035;-78
2020/12/13 10:54:04;;;;;;;22.58;8.32;;;8.30;99.90;;;;;;4981508;28;20085;-78
2020/12/13 10:56:30;;;;;;;25.95;8.20;;;8.30;99.90;;;;;;4996729;28;20057;-79
2020/12/13 10:58:56;;;;;;;16.35;6.45;;;8.30;99.90;;;;;;4983476;28;20125;-79
2020/12/13 11:01:22;;;;;;;19.98;6.97;;;8.40;99.90;;;;;;4975726;28;20388;-79
2020/12/13 11:03:48;;;;;;;14.00;6.13;;;8.40;99.90;;;;;;4977530;28;20085;-79
2020/12/13 11:06:13;;;;;;;13.57;6.63;;;8.40;99.90;;;;;;4965349;28;20032;-79
2020/12/13 11:08:39;;;;;;;22.75;7.28;;;8.30;99.90;;;;;;4963544;28;20024;-79
2020/12/13 11:11:06;;;;;;;20.08;6.68;;;8.40;99.90;;;;;;4967812;28;20027;-79
2020/12/13 11:13:32;;;;;;;16.10;6.80;;;8.40;99.90;;;;;;4966424;28;20034;-79
2020/12/13 11:15:57;;;;;;;16.05;7.15;;;8.40;99.90;;;;;;4973813;28;20121;-80
2020/12/13 11:18:23;;;;;;;16.48;6.63;;;8.50;99.90;;;;;;4968600;28;20051;-78
2020/12/13 11:20:48;;;;;;;15.15;5.85;;;8.60;99.90;;;;;;4962054;29;20027;-79
2020/12/13 11:23:14;;;;;;;21.33;8.23;;;8.60;99.90;;;;;;4970139;28;20038;-77
2020/12/13 11:25:40;;;;;;;18.77;5.85;;;8.70;99.90;;;;;;4984723;28;20031;-77
2020/12/13 11:28:06;;;;;;;16.25;5.95;;;8.70;99.90;;;;;;4973128;28;20054;-77
2020/12/13 11:30:33;;;;;;;12.95;6.05;;;8.70;99.90;;;;;;4978553;28;20467;-76
2020/12/13 11:32:58;;;;;;;14.80;5.57;;;8.70;99.90;;;;;;4966994;29;20071;-77
2020/12/13 11:35:24;;;;;;;22.20;7.05;;;8.70;99.90;;;;;;4966214;28;20023;-76
2020/12/13 11:37:50;;;;;;;18.73;6.82;;;8.70;99.90;;;;;;4965195;29;20032;-78
2020/12/13 11:40:15;;;;;;;19.25;6.72;;;8.70;99.90;;;;;;4969692;28;20035;-77
2020/12/13 11:42:41;;;;;;;10.98;5.20;;;8.80;99.90;;;;;;4964545;29;20377;-78
2020/12/13 11:45:07;;;;;;;13.77;5.32;;;8.70;99.90;;;;;;4973570;28;20010;-78
2020/12/13 11:47:33;;;;;;;12.93;5.80;;;8.60;99.90;;;;;;4989147;28;20019;-77
2020/12/13 11:49:59;;;;;;;18.05;5.78;;;8.50;99.90;;;;;;4985178;28;20025;-77
2020/12/13 11:52:25;;;;;;;14.77;4.70;;;8.50;99.90;;;;;;4978572;28;20027;-77
2020/12/13 11:54:50;;;;;;;18.63;5.68;;;8.40;99.90;;;;;;4979359;28;20027;-77
2020/12/13 11:57:16;;;;;;;17.95;5.50;;;8.40;99.90;;;;;;4981390;28;20023;-77
2020/12/13 11:59:42;;;;;;;12.75;4.47;;;8.40;99.90;;;;;;4979962;28;20029;-78
2020/12/13 12:02:07;;;;;;;16.15;4.57;;;8.40;99.90;;;;;;4996338;28;20058;-78
2020/12/13 12:04:33;;;;;;;13.55;4.43;;;8.50;99.90;;;;;;4991202;28;20043;-77
2020/12/13 12:07:00;;;;;;;13.50;5.18;;;8.50;99.90;;;;;;4979011;28;20068;-77
2020/12/13 12:09:25;;;;;;;14.25;4.28;;;8.50;99.90;;;;;;4976677;28;20047;-78
2020/12/13 12:11:51;;;;;;;16.38;4.85;;;8.60;99.90;;;;;;4987362;28;20078;-78
2020/12/13 12:14:17;;;;;;;18.65;4.18;;;8.60;99.90;;;;;;4984275;28;20043;-77
2020/12/13 12:16:44;;;;;;;14.65;3.97;;;8.70;99.90;;;;;;4976339;28;20026;-78
2020/12/13 12:19:13;;;;;;;18.38;3.97;;;8.70;99.90;;;;;;4961511;28;20170;-78
2020/12/13 12:21:50;;;;;;;14.27;5.60;;;8.70;99.90;;;;;;4976734;28;20054;-78
2020/12/13 12:24:18;;;;;;;11.73;4.25;;;8.80;99.90;;;;;;4966433;28;20086;-78
2020/12/13 12:26:44;;;;;;;7.75;3.78;;;8.80;99.90;;;;;;4958049;29;20094;-78
2020/12/13 12:29:10;;;;;;;17.67;4.45;;;8.80;99.90;;;;;;4983405;28;20847;-77
2020/12/13 12:31:36;;;;;;;14.43;5.43;;;8.80;99.90;;;;;;4967943;29;20036;-77
2020/12/13 12:34:02;;;;;;;10.48;4.88;;;8.80;99.90;;;;;;4968965;28;20062;-78
2020/12/13 12:36:28;;;;;;;17.70;8.93;;;8.90;99.90;;;;;;4970742;29;20043;-78
2020/12/13 12:38:55;;;;;;;12.98;5.45;;;8.90;99.90;;;;;;4982220;28;20034;-78
2020/12/13 12:41:21;;;;;;;9.43;4.30;;;9.00;99.90;;;;;;4969542;29;20046;-78
2020/12/13 12:43:48;;;;;;;25.73;9.10;;;9.10;99.90;;;;;;4971860;28;20082;-78
2020/12/13 12:46:14;;;;;;;22.42;8.85;;;9.10;99.90;;;;;;4986814;28;20058;-77
2020/12/13 12:48:40;;;;;;;16.27;4.75;;;9.10;99.90;;;;;;4984792;28;20031;-77